Time;durP1;ratioP1;P1;durP2;ratioP2;P2;SDS_P1;SDS_P2;PMS_P1;PMS_P2;Temp;Humidity;BMP_temperature;BMP_pressure;BME280_temperature;BME280_humidity;BME280_pressure;Samples;Min_cycle;Max_cycle;Signal;HPM_P1;HPM_P2
2023/09/09 00:00:31;;;;;;;385.90;324.65;;;;;;;21.42;82.64;99945.81;2500937;27;20493;-75
2023/09/09 00:00:42;;;;;;;394.23;345.43;;;;;;;21.36;82.63;99939.16;352810;28;1186;-75
2023/09/09 00:00:52;;;;;;;392.25;336.70;;;;;;;21.34;83.13;99942.91;351400;28;871;-75
2023/09/09 00:01:03;;;;;;;391.35;332.35;;;;;;;21.34;83.00;99943.75;348757;28;986;-75
2023/09/09 00:01:13;;;;;;;392.57;333.63;;;;;;;21.36;83.17;99936.50;349047;28;1090;-75
2023/09/09 00:01:24;;;;;;;393.25;340.00;;;;;;;21.36;82.99;99941.81;347350;28;951;-75
2023/09/09 00:01:34;;;;;;;393.10;341.80;;;;;;;21.39;83.30;99941.56;347227;28;964;-75
2023/09/09 00:01:44;;;;;;;395.02;342.63;;;;;;;21.39;83.25;99941.56;347348;28;864;-75
2023/09/09 00:01:55;;;;;;;393.73;337.27;;;;;;;21.39;82.99;99944.22;347188;28;848;-75
2023/09/09 00:02:05;;;;;;;395.30;341.10;;;;;;;21.40;82.76;99945.94;347247;28;1188;-75
2023/09/09 00:02:16;;;;;;;392.83;340.98;;;;;;;21.41;83.23;99942.28;350032;28;1518;-75
2023/09/09 00:02:26;;;;;;;392.88;342.42;;;;;;;21.42;83.22;99945.81;348657;28;1278;-75
2023/09/09 00:02:37;;;;;;;394.30;345.30;;;;;;;21.41;82.77;99944.09;350001;28;1347;-75
2023/09/09 00:02:48;;;;;;;395.03;350.43;;;;;;;21.42;82.51;99944.00;350048;28;1311;-75
2023/09/09 00:02:59;;;;;;;396.45;351.90;;;;;;;21.43;82.88;99947.50;348340;28;1402;-76
2023/09/09 00:03:09;;;;;;;395.00;349.60;;;;;;;21.46;82.56;99942.78;347330;28;1202;-76
2023/09/09 00:03:19;;;;;;;397.52;351.67;;;;;;;21.45;82.50;99945.56;348809;28;962;-75
2023/09/09 00:03:30;;;;;;;401.60;357.30;;;;;;;21.46;82.46;99947.25;348838;28;864;-75
2023/09/09 00:03:41;;;;;;;407.83;363.42;;;;;;;21.46;82.34;99948.09;348674;28;1461;-76
2023/09/09 00:03:52;;;;;;;407.55;363.30;;;;;;;21.46;82.77;99950.75;351365;28;1437;-75
2023/09/09 00:04:03;;;;;;;404.42;360.27;;;;;;;21.46;82.45;99942.78;351466;28;1382;-75
2023/09/09 00:04:13;;;;;;;396.20;352.23;;;;;;;21.45;82.78;99946.41;351423;28;941;-75
2023/09/09 00:04:24;;;;;;;397.23;353.27;;;;;;;21.45;82.37;99951.72;347667;28;1192;-75
2023/09/09 00:04:34;;;;;;;400.90;356.88;;;;;;;21.46;82.55;99948.09;348828;28;892;-76
2023/09/09 00:04:45;;;;;;;398.77;354.83;;;;;;;21.46;82.69;99948.09;347314;28;793;-76
2023/09/09 00:04:55;;;;;;;399.38;355.40;;;;;;;21.46;82.51;99945.44;346993;28;1386;-76
2023/09/09 00:05:06;;;;;;;399.23;355.27;;;;;;;21.47;82.68;99947.13;347118;28;994;-76
2023/09/09 00:05:16;;;;;;;400.90;357.02;;;;;;;21.48;82.50;99945.31;346106;28;936;-76
2023/09/09 00:05:29;;;;;;;394.43;350.57;;;;;;;21.50;82.48;99944.22;345465;28;1264;-76
2023/09/09 00:05:40;;;;;;;397.10;352.77;;;;;;;21.50;82.35;99938.91;343106;28;1367;-77
2023/09/09 00:05:50;;;;;;;396.37;350.83;;;;;;;21.51;82.73;99948.56;347516;28;1195;-76
2023/09/09 00:06:10;;;;;;;396.63;350.73;;;;;;;21.51;82.69;99948.56;351445;28;725;-76
2023/09/09 00:06:20;;;;;;;399.90;355.92;;;;;;;21.51;82.49;99945.91;347174;28;1330;-76
2023/09/09 00:06:31;;;;;;;404.00;359.85;;;;;;;21.51;82.44;99942.41;346147;28;2827;-75
2023/09/09 00:06:41;;;;;;;398.63;354.63;;;;;;;21.52;82.20;99946.75;341468;28;4235;-75
2023/09/09 00:06:51;;;;;;;395.43;351.70;;;;;;;21.53;82.22;99943.13;342655;28;2829;-75
2023/09/09 00:07:03;;;;;;;399.10;355.10;;;;;;;21.53;81.93;99945.78;344405;28;3153;-76
2023/09/09 00:07:13;;;;;;;404.45;360.20;;;;;;;21.53;82.12;99949.31;345648;28;3142;-76
2023/09/09 00:07:24;;;;;;;404.25;359.90;;;;;;;21.54;82.35;99944.81;344482;28;1212;-76
2023/09/09 00:07:34;;;;;;;401.83;357.63;;;;;;;21.53;81.87;99946.63;340483;29;1606;-75
2023/09/09 00:07:44;;;;;;;397.03;352.70;;;;;;;21.53;82.07;99948.47;339199;29;1403;-75
2023/09/09 00:07:55;;;;;;;399.67;354.33;;;;;;;21.54;82.08;99953.66;337018;29;1238;-75
2023/09/09 00:08:05;;;;;;;397.50;349.33;;;;;;;21.53;82.17;99945.78;336749;29;925;-75
2023/09/09 00:08:16;;;;;;;395.63;344.60;;;;;;;21.54;81.85;99950.16;340369;29;1373;-76
2023/09/09 00:08:26;;;;;;;391.80;344.05;;;;;;;21.55;82.40;99946.50;339903;29;1266;-76
2023/09/09 00:08:37;;;;;;;394.77;349.17;;;;;;;21.53;82.38;99946.63;342713;28;1337;-76
2023/09/09 00:08:48;;;;;;;396.27;351.17;;;;;;;21.53;82.16;99953.78;340885;28;1502;-76
2023/09/09 00:08:58;;;;;;;395.97;348.87;;;;;;;21.53;82.26;99951.97;337459;29;1412;-75
2023/09/09 00:09:08;;;;;;;400.70;356.70;;;;;;;21.53;82.31;99949.31;336340;29;1641;-75
2023/09/09 00:09:19;;;;;;;405.63;361.57;;;;;;;21.54;82.26;99944.81;335250;29;993;-76
2023/09/09 00:09:29;;;;;;;403.45;359.55;;;;;;;21.54;82.15;99951.00;337919;29;1456;-76
2023/09/09 00:09:41;;;;;;;400.73;356.97;;;;;;;21.53;81.98;99949.31;339958;29;925;-77
2023/09/09 00:09:54;;;;;;;397.95;354.38;;;;;;;21.55;81.83;99949.19;339376;29;936;-77
2023/09/09 00:10:05;;;;;;;400.27;356.75;;;;;;;21.53;82.08;99949.31;337842;29;1045;-76
2023/09/09 00:10:15;;;;;;;398.23;354.83;;;;;;;21.46;82.36;99945.44;336694;29;861;-76
2023/09/09 00:10:26;;;;;;;399.87;356.23;;;;;;;21.39;82.41;99952.22;334966;29;1462;-76
2023/09/09 00:10:37;;;;;;;394.27;350.70;;;;;;;21.34;82.94;99941.09;331928;29;1779;-76
2023/09/09 00:10:47;;;;;;;397.55;353.40;;;;;;;21.33;82.69;99947.38;334101;29;1407;-77
2023/09/09 00:10:58;;;;;;;400.40;355.63;;;;;;;21.34;82.68;99948.22;333421;29;1896;-76
2023/09/09 00:11:09;;;;;;;402.45;357.98;;;;;;;21.34;83.09;99949.09;334668;29;2115;-76
2023/09/09 00:11:19;;;;;;;397.33;353.17;;;;;;;21.35;83.09;99944.59;331514;29;1406;-76
2023/09/09 00:11:30;;;;;;;398.80;354.87;;;;;;;21.34;83.27;99949.09;333970;29;1493;-76
2023/09/09 00:11:40;;;;;;;396.95;350.83;;;;;;;21.33;82.96;99942.06;336089;29;1719;-76
2023/09/09 00:11:51;;;;;;;398.95;351.85;;;;;;;21.34;83.06;99937.59;334045;29;1065;-75
2023/09/09 00:12:02;;;;;;;397.47;349.73;;;;;;;21.35;83.05;99948.09;330190;29;1317;-75
2023/09/09 00:12:13;;;;;;;396.05;349.80;;;;;;;21.36;82.98;99944.47;331685;29;1367;-75
2023/09/09 00:12:23;;;;;;;396.50;351.73;;;;;;;21.37;82.61;99948.84;329868;29;1758;-75
2023/09/09 00:12:34;;;;;;;397.63;353.73;;;;;;;21.38;82.97;99950.53;330381;29;851;-75
2023/09/09 00:12:44;;;;;;;401.33;357.40;;;;;;;21.39;82.74;99946.91;329764;29;2166;-75
2023/09/09 00:12:55;;;;;;;402.65;358.65;;;;;;;21.40;82.88;99943.25;326582;29;2505;-75
2023/09/09 00:13:05;;;;;;;402.17;357.83;;;;;;;21.40;82.73;99945.94;325098;30;2451;-75
2023/09/09 00:13:16;;;;;;;401.67;357.27;;;;;;;21.40;82.68;99948.59;325436;30;1250;-75
2023/09/09 00:13:26;;;;;;;403.17;358.80;;;;;;;21.41;82.81;99947.63;325406;30;2771;-75
2023/09/09 00:13:37;;;;;;;409.50;365.10;;;;;;;21.41;82.76;99952.94;324275;30;2682;-75
2023/09/09 00:13:47;;;;;;;403.07;358.93;;;;;;;21.41;82.81;99944.97;323084;30;698;-75
2023/09/09 00:13:57;;;;;;;399.70;355.83;;;;;;;21.42;82.93;99951.13;326826;30;1942;-75
2023/09/09 00:14:08;;;;;;;392.00;347.60;;;;;;;21.43;82.75;99947.50;327675;30;971;-75
2023/09/09 00:14:18;;;;;;;398.93;355.20;;;;;;;21.43;82.64;99945.69;328096;30;1144;-75
2023/09/09 00:14:29;;;;;;;397.52;353.90;;;;;;;21.43;82.49;99943.03;325089;30;1995;-75
2023/09/09 00:14:39;;;;;;;398.80;354.93;;;;;;;21.45;82.85;99945.56;321941;30;2568;-75
2023/09/09 00:14:50;;;;;;;398.35;354.45;;;;;;;21.45;82.64;99935.75;320048;30;2920;-75
2023/09/09 00:15:01;;;;;;;402.90;358.77;;;;;;;21.46;82.90;99948.09;318314;30;1234;-75
2023/09/09 00:15:12;;;;;;;400.08;356.17;;;;;;;21.46;82.34;99948.09;319373;30;3084;-75
2023/09/09 00:15:22;;;;;;;395.90;351.10;;;;;;;21.46;82.60;99945.44;318450;30;3184;-75
2023/09/09 00:15:33;;;;;;;394.65;350.00;;;;;;;21.46;82.36;99945.44;318313;30;1247;-75
2023/09/09 00:15:43;;;;;;;393.23;348.98;;;;;;;21.47;82.24;99948.94;321609;30;3829;-75
2023/09/09 00:15:54;;;;;;;400.23;356.43;;;;;;;21.47;82.36;99941.81;321066;30;6942;-75
2023/09/09 00:16:05;;;;;;;394.27;350.67;;;;;;;21.48;82.80;99945.31;320488;30;2819;-75
2023/09/09 00:16:15;;;;;;;394.27;350.63;;;;;;;21.49;82.05;99942.53;314966;31;1242;-75
2023/09/09 00:16:29;;;;;;;397.70;353.70;;;;;;;21.49;82.58;99942.53;312660;31;2105;-75
2023/09/09 00:16:39;;;;;;;396.88;352.85;;;;;;;21.50;82.27;99944.22;310069;31;2891;-75
2023/09/09 00:16:50;;;;;;;392.97;349.33;;;;;;;21.49;82.24;99945.19;309150;31;2075;-75
2023/09/09 00:17:00;;;;;;;395.63;351.65;;;;;;;21.50;82.50;99943.38;307645;32;812;-76
2023/09/09 00:17:10;;;;;;;396.23;351.73;;;;;;;21.49;82.43;99942.53;308167;31;4882;-76
2023/09/09 00:17:21;;;;;;;395.33;348.37;;;;;;;21.50;82.26;99944.22;305850;31;4392;-76
2023/09/09 00:17:31;;;;;;;392.25;344.42;;;;;;;21.45;82.01;99942.91;308324;32;994;-76
2023/09/09 00:17:42;;;;;;;391.37;344.33;;;;;;;21.40;82.89;99943.25;307644;31;4583;-76
2023/09/09 00:17:52;;;;;;;389.52;341.52;;;;;;;21.36;82.76;99944.47;305660;32;4729;-76
2023/09/09 00:18:03;;;;;;;392.23;348.63;;;;;;;21.32;83.00;99939.53;303173;32;1301;-76
2023/09/09 00:18:13;;;;;;;393.80;350.10;;;;;;;21.30;82.90;99936.97;300600;32;4571;-76
2023/09/09 00:18:24;;;;;;;396.97;353.13;;;;;;;21.27;82.95;99937.22;301839;32;3285;-76
2023/09/09 00:18:34;;;;;;;398.83;354.98;;;;;;;21.26;83.44;99940.84;301983;32;877;-76
2023/09/09 00:18:44;;;;;;;393.67;350.07;;;;;;;21.26;83.23;99940.84;299293;32;3272;-76
2023/09/09 00:18:56;;;;;;;399.73;355.98;;;;;;;21.26;82.92;99935.53;300823;32;4887;-76
2023/09/09 00:19:07;;;;;;;400.27;356.42;;;;;;;21.27;82.90;99937.22;302830;32;5467;-76
2023/09/09 00:19:21;;;;;;;404.67;360.53;;;;;;;21.29;82.92;99942.44;304912;32;1173;-76
2023/09/09 00:19:34;;;;;;;402.20;357.95;;;;;;;21.30;83.31;99944.13;301059;32;1836;-76
2023/09/09 00:19:44;;;;;;;405.38;360.95;;;;;;;21.32;82.75;99943.03;299766;32;5882;-76
2023/09/09 00:19:54;;;;;;;402.73;358.53;;;;;;;21.34;83.12;99942.91;296940;33;6795;-76
2023/09/09 00:20:09;;;;;;;394.67;350.25;;;;;;;21.35;82.68;99944.59;294315;33;6256;-76
2023/09/09 00:20:30;;;;;;;392.02;345.50;;;;;;;21.36;82.61;99936.50;296756;33;927;-76
2023/09/09 00:20:41;;;;;;;392.20;347.80;;;;;;;21.38;82.73;99941.69;294888;33;5187;-76
2023/09/09 00:20:52;;;;;;;392.77;348.73;;;;;;;21.38;82.63;99941.69;295101;33;4672;-76
2023/09/09 00:21:03;;;;;;;400.80;356.88;;;;;;;21.39;82.58;99940.72;295860;33;1325;-76
2023/09/09 00:21:14;;;;;;;403.23;359.30;;;;;;;21.39;82.95;99938.06;294128;33;6219;-76
2023/09/09 00:21:24;;;;;;;399.25;355.45;;;;;;;21.39;82.47;99941.56;290257;33;7835;-76
2023/09/09 00:21:34;;;;;;;391.77;346.80;;;;;;;21.39;82.96;99936.25;290033;34;832;-76
2023/09/09 00:21:46;;;;;;;397.70;353.93;;;;;;;21.39;82.90;99941.56;287228;34;672;-76
2023/09/09 00:21:56;;;;;;;401.55;355.60;;;;;;;21.40;82.91;99935.28;285268;34;8396;-76
2023/09/09 00:22:07;;;;;;;401.43;353.40;;;;;;;21.41;82.63;99938.78;284638;33;8759;-75
2023/09/09 00:22:17;;;;;;;401.00;347.93;;;;;;;21.39;82.80;99941.56;287434;34;738;-75
2023/09/09 00:22:27;;;;;;;394.95;347.50;;;;;;;21.35;82.52;99941.94;286321;34;9140;-75
2023/09/09 00:22:38;;;;;;;396.00;349.30;;;;;;;21.30;82.82;99936.97;285135;34;8835;-75
2023/09/09 00:22:49;;;;;;;394.95;350.92;;;;;;;21.28;82.85;99938.91;287164;34;809;-75
2023/09/09 00:23:08;;;;;;;398.87;354.90;;;;;;;21.24;83.00;99940.13;286481;34;6777;-75
2023/09/09 00:23:19;;;;;;;396.73;352.77;;;;;;;21.23;83.55;99941.94;284360;34;1047;-75
2023/09/09 00:23:29;;;;;;;395.30;350.42;;;;;;;21.23;83.45;99941.09;282959;34;8285;-75
2023/09/09 00:25:11;;;;;;;381.30;321.41;;;;;;;21.28;83.34;99933.59;2497438;27;20505;-75
2023/09/09 00:25:22;;;;;;;394.07;348.13;;;;;;;21.28;83.28;99933.59;350890;28;2781;-75
2023/09/09 00:25:32;;;;;;;397.33;347.07;;;;;;;21.29;83.05;99934.44;349683;28;6189;-75
2023/09/09 00:25:43;;;;;;;400.13;349.63;;;;;;;21.29;83.27;99937.09;348421;28;4892;-77
2023/09/09 00:25:53;;;;;;;399.23;348.60;;;;;;;21.28;83.23;99933.59;348586;28;1414;-76
2023/09/09 00:26:04;;;;;;;396.47;350.67;;;;;;;21.30;82.75;99942.31;347498;28;1315;-76
2023/09/09 00:26:14;;;;;;;394.70;348.27;;;;;;;21.30;82.72;99936.97;348899;28;793;-76
2023/09/09 00:26:27;;;;;;;394.80;349.20;;;;;;;21.31;82.82;99937.81;349954;28;1402;-76
2023/09/09 00:26:38;;;;;;;396.40;351.35;;;;;;;21.30;83.25;99936.13;347245;28;2119;-76
2023/09/09 00:26:48;;;;;;;399.55;355.33;;;;;;;21.29;82.76;99935.28;348959;28;951;-76
2023/09/09 00:27:00;;;;;;;398.60;354.47;;;;;;;21.31;83.10;99933.34;349403;28;1212;-76
2023/09/09 00:27:11;;;;;;;398.55;354.45;;;;;;;21.30;82.91;99936.97;349288;28;1132;-76
2023/09/09 00:27:21;;;;;;;396.60;351.70;;;;;;;21.31;82.90;99936.00;348662;28;928;-76
2023/09/09 00:27:31;;;;;;;396.53;350.17;;;;;;;21.33;83.10;99935.88;344864;28;899;-76
2023/09/09 00:27:42;;;;;;;400.13;355.93;;;;;;;21.32;83.17;99937.69;347447;28;808;-76
2023/09/09 00:27:53;;;;;;;401.53;357.30;;;;;;;21.30;82.80;99934.31;349875;28;1652;-76
2023/09/09 00:28:04;;;;;;;399.08;354.83;;;;;;;21.29;82.93;99934.44;349877;28;1302;-75
2023/09/09 00:28:15;;;;;;;396.80;351.30;;;;;;;21.29;82.82;99937.94;348677;28;907;-75
2023/09/09 00:28:25;;;;;;;395.25;349.60;;;;;;;21.29;83.35;99929.13;350039;28;1266;-75
2023/09/09 00:28:35;;;;;;;401.27;357.20;;;;;;;21.28;83.05;99936.25;350596;28;1357;-75
2023/09/09 00:28:46;;;;;;;401.20;357.23;;;;;;;21.27;82.98;99937.22;347401;28;864;-75
2023/09/09 00:28:57;;;;;;;406.73;362.53;;;;;;;21.26;83.18;99932.88;348545;28;1471;-75
2023/09/09 00:29:07;;;;;;;398.63;354.17;;;;;;;21.28;82.96;99938.91;349102;28;1035;-75
2023/09/09 00:29:17;;;;;;;397.08;350.80;;;;;;;21.28;83.08;99933.59;348760;28;1259;-75
2023/09/09 00:29:29;;;;;;;393.23;342.93;;;;;;;21.27;83.25;99931.91;346072;28;896;-75
2023/09/09 00:29:39;;;;;;;392.42;344.70;;;;;;;21.28;83.25;99922.94;343065;28;1314;-75
2023/09/09 00:29:50;;;;;;;390.00;339.27;;;;;;;21.29;83.14;99940.59;342579;28;1351;-75
2023/09/09 00:30:00;;;;;;;388.63;337.50;;;;;;;21.28;83.05;99938.06;343222;28;872;-75
2023/09/09 00:30:11;;;;;;;391.10;338.45;;;;;;;21.24;83.37;99933.00;346885;28;1230;-75
2023/09/09 00:30:21;;;;;;;393.23;339.35;;;;;;;21.22;83.13;99928.78;348635;28;670;-75
2023/09/09 00:30:32;;;;;;;395.70;344.07;;;;;;;21.21;83.41;99927.09;346080;28;1322;-75
2023/09/09 00:30:42;;;;;;;392.48;339.15;;;;;;;21.22;83.32;99934.97;345997;28;765;-76
2023/09/09 00:30:54;;;;;;;392.23;335.93;;;;;;;21.22;83.15;99937.63;347134;28;1209;-75
2023/09/09 00:31:04;;;;;;;389.45;327.95;;;;;;;21.22;83.07;99934.13;346792;28;5755;-76
2023/09/09 00:31:15;;;;;;;391.77;334.35;;;;;;;21.20;83.59;99926.22;344476;28;1251;-77
2023/09/09 00:31:25;;;;;;;391.40;335.50;;;;;;;21.21;83.27;99935.06;342958;28;1172;-77
2023/09/09 00:31:35;;;;;;;390.58;336.27;;;;;;;21.22;83.15;99932.28;344592;28;1120;-77
2023/09/09 00:31:46;;;;;;;390.20;336.57;;;;;;;21.24;83.46;99934.81;341639;28;1314;-76
2023/09/09 00:31:56;;;;;;;392.20;338.58;;;;;;;21.24;83.25;99932.13;343233;28;853;-76
2023/09/09 00:32:07;;;;;;;393.23;337.13;;;;;;;21.25;83.38;99928.50;345448;28;857;-76
2023/09/09 00:32:17;;;;;;;391.60;333.37;;;;;;;21.26;83.12;99924.88;346298;28;880;-76
2023/09/09 00:32:27;;;;;;;389.58;330.00;;;;;;;21.27;83.16;99931.91;345829;28;832;-76
2023/09/09 00:32:38;;;;;;;389.67;332.03;;;;;;;21.28;82.77;99933.59;345929;28;857;-76
2023/09/09 00:32:48;;;;;;;390.08;334.58;;;;;;;21.29;83.04;99934.44;344672;28;855;-76
2023/09/09 00:32:58;;;;;;;390.30;340.23;;;;;;;21.30;83.06;99933.47;340539;29;818;-75
2023/09/09 00:33:09;;;;;;;388.70;337.43;;;;;;;21.29;82.76;99929.97;344092;28;1317;-75
2023/09/09 00:33:19;;;;;;;391.23;339.95;;;;;;;21.31;82.91;99933.34;342594;28;1340;-75
2023/09/09 00:33:30;;;;;;;391.13;337.10;;;;;;;21.32;83.37;99920.88;343022;28;1274;-75
2023/09/09 00:33:40;;;;;;;393.33;340.15;;;;;;;21.32;83.38;99932.38;345698;28;1468;-75
2023/09/09 00:33:52;;;;;;;388.90;333.13;;;;;;;21.32;83.03;99937.69;342652;28;1468;-75
2023/09/09 00:34:03;;;;;;;389.85;339.73;;;;;;;21.31;83.38;99928.03;339832;28;1437;-77
2023/09/09 00:34:13;;;;;;;393.23;346.23;;;;;;;21.31;82.94;99927.19;336678;29;1313;-76
2023/09/09 00:34:24;;;;;;;393.50;346.37;;;;;;;21.31;83.27;99928.03;340223;29;1238;-76
2023/09/09 00:34:34;;;;;;;393.85;343.00;;;;;;;21.30;83.16;99930.81;343212;28;965;-76
2023/09/09 00:34:45;;;;;;;392.50;339.92;;;;;;;21.31;82.87;99933.34;343282;28;834;-76
2023/09/09 00:34:55;;;;;;;394.83;346.43;;;;;;;21.31;83.25;99928.03;339271;29;762;-76
2023/09/09 00:35:06;;;;;;;391.38;340.42;;;;;;;21.32;83.15;99934.19;335838;29;1504;-76
2023/09/09 00:35:16;;;;;;;388.33;335.30;;;;;;;21.31;83.25;99930.69;335206;28;1750;-76
2023/09/09 00:35:27;;;;;;;387.88;331.85;;;;;;;21.31;83.31;99933.34;339726;29;865;-75
2023/09/09 00:35:38;;;;;;;387.57;331.20;;;;;;;21.31;83.18;99928.03;339928;28;1928;-75
2023/09/09 00:35:49;;;;;;;388.35;333.35;;;;;;;21.29;82.92;99931.78;331946;29;2176;-75
2023/09/09 00:36:01;;;;;;;387.97;336.47;;;;;;;21.29;83.35;99929.97;329034;30;950;-76
2023/09/09 00:36:12;;;;;;;390.25;346.00;;;;;;;21.28;83.04;99928.25;327884;30;1454;-76
2023/09/09 00:36:22;;;;;;;392.33;348.63;;;;;;;21.27;83.44;99931.91;327091;30;1614;-76
2023/09/09 00:36:32;;;;;;;397.00;352.88;;;;;;;21.25;83.59;99931.16;327725;30;1263;-76
2023/09/09 00:36:43;;;;;;;395.60;342.30;;;;;;;21.23;83.82;99931.28;327844;30;1348;-76
2023/09/09 00:36:53;;;;;;;394.40;340.30;;;;;;;21.23;83.43;99930.44;322856;30;1441;-75
2023/09/09 00:37:04;;;;;;;392.17;339.57;;;;;;;21.21;83.56;99932.41;326106;29;2072;-75
2023/09/09 00:37:14;;;;;;;393.30;348.37;;;;;;;21.22;83.43;99934.13;327828;30;891;-75
2023/09/09 00:37:24;;;;;;;396.13;347.45;;;;;;;21.22;83.85;99929.63;327381;30;2011;-75
2023/09/09 00:37:35;;;;;;;396.50;347.73;;;;;;;21.21;83.66;99927.09;327106;29;2357;-75
2023/09/09 00:37:45;;;;;;;396.47;346.33;;;;;;;21.20;83.40;99931.53;325443;30;741;-75
2023/09/09 00:37:55;;;;;;;396.13;347.97;;;;;;;21.22;83.47;99928.78;319351;30;1000;-75
2023/09/09 00:38:07;;;;;;;396.60;346.27;;;;;;;21.22;83.53;99934.13;318372;30;2717;-75
2023/09/09 00:38:17;;;;;;;395.45;344.27;;;;;;;21.20;83.69;99931.53;315458;31;2993;-75
2023/09/09 00:38:28;;;;;;;392.30;342.00;;;;;;;21.21;83.66;99929.75;313841;31;791;-75
2023/09/09 00:38:38;;;;;;;393.35;343.65;;;;;;;21.21;83.96;99937.75;315385;31;1853;-75
2023/09/09 00:38:48;;;;;;;396.30;348.40;;;;;;;21.21;83.87;99927.94;315000;31;1477;-75
2023/09/09 00:39:00;;;;;;;398.37;351.83;;;;;;;21.22;83.72;99934.13;316932;31;1226;-75
2023/09/09 00:39:10;;;;;;;395.95;351.17;;;;;;;21.22;83.78;99934.13;312462;31;2000;-75
2023/09/09 00:39:20;;;;;;;397.87;353.97;;;;;;;21.22;84.17;99939.44;311134;31;2545;-75
2023/09/09 00:39:32;;;;;;;404.75;360.38;;;;;;;21.21;83.70;99938.59;311298;31;3110;-75
2023/09/09 00:39:42;;;;;;;406.75;358.95;;;;;;;21.23;83.61;99938.44;311603;31;1279;-75
2023/09/09 00:39:52;;;;;;;403.63;352.43;;;;;;;21.23;83.75;99935.78;309634;31;2629;-75
2023/09/09 00:40:04;;;;;;;399.42;348.88;;;;;;;21.23;83.61;99936.63;306007;31;3131;-75
2023/09/09 00:40:14;;;;;;;394.20;345.00;;;;;;;21.24;83.55;99937.47;308373;32;875;-75
2023/09/09 00:40:25;;;;;;;392.00;340.55;;;;;;;21.24;84.03;99937.47;307842;32;3579;-75
2023/09/09 00:40:35;;;;;;;392.33;344.50;;;;;;;21.23;83.85;99936.63;305298;32;3947;-75
2023/09/09 00:41:12;;;;;;;393.50;347.70;;;;;;;21.24;83.66;99940.13;302268;32;2650;-75
2023/09/09 00:41:23;;;;;;;393.60;341.67;;;;;;;21.23;84.06;99943.75;303334;32;3172;-75
2023/09/09 00:41:34;;;;;;;395.05;344.55;;;;;;;21.23;84.28;99930.44;299294;32;3457;-75
2023/09/09 00:41:44;;;;;;;396.87;350.30;;;;;;;21.23;84.09;99935.78;295829;33;1353;-75
2023/09/09 00:41:54;;;;;;;399.83;355.57;;;;;;;21.23;84.13;99935.78;302192;32;3732;-75
2023/09/09 00:42:05;;;;;;;400.88;356.58;;;;;;;21.23;84.42;99936.63;302406;32;3550;-75
2023/09/09 00:42:15;;;;;;;395.90;348.93;;;;;;;21.22;84.24;99934.97;305087;32;939;-75
2023/09/09 00:42:25;;;;;;;393.98;344.60;;;;;;;21.23;84.22;99935.78;299465;32;1320;-75
2023/09/09 00:42:36;;;;;;;390.93;338.40;;;;;;;21.22;84.27;99937.63;298272;32;4485;-75
2023/09/09 00:42:47;;;;;;;392.52;341.73;;;;;;;21.23;84.11;99941.09;299331;32;4617;-75
2023/09/09 00:42:57;;;;;;;395.45;341.95;;;;;;;21.22;84.04;99934.13;298683;33;1308;-75
2023/09/09 00:43:08;;;;;;;400.33;351.23;;;;;;;21.22;84.24;99939.44;298004;32;3570;-75
2023/09/09 00:43:18;;;;;;;400.17;353.50;;;;;;;21.22;83.93;99937.63;299007;32;3304;-75
2023/09/09 00:43:28;;;;;;;400.80;350.70;;;;;;;21.21;84.24;99937.75;296133;33;1184;-75
2023/09/09 00:43:40;;;;;;;400.63;348.50;;;;;;;21.20;84.66;99936.00;294829;33;4584;-75
2023/09/09 00:43:50;;;;;;;399.55;345.77;;;;;;;21.19;84.51;99937.81;292144;33;5040;-75
2023/09/09 00:44:00;;;;;;;395.37;344.87;;;;;;;21.20;84.48;99941.34;289505;33;5453;-74
2023/09/09 00:44:11;;;;;;;395.37;348.57;;;;;;;21.20;84.38;99930.69;291515;33;3055;-74
2023/09/09 00:44:21;;;;;;;400.80;356.50;;;;;;;21.18;84.72;99935.28;290689;33;5083;-74
2023/09/09 00:44:32;;;;;;;409.47;364.87;;;;;;;21.17;84.51;99936.25;289894;33;5013;-74
2023/09/09 00:44:42;;;;;;;406.20;361.70;;;;;;;21.16;85.07;99934.56;291984;33;811;-74
2023/09/09 00:44:53;;;;;;;401.53;357.30;;;;;;;21.17;84.52;99936.25;292050;33;6358;-75
2023/09/09 00:45:03;;;;;;;400.75;356.52;;;;;;;21.16;84.82;99935.41;291833;33;6539;-75
2023/09/09 00:45:14;;;;;;;397.75;353.33;;;;;;;21.18;84.75;99943.28;291016;34;1125;-75
2023/09/09 00:45:26;;;;;;;398.50;354.30;;;;;;;21.17;84.58;99941.59;290087;34;5167;-75
2023/09/09 00:45:38;;;;;;;397.17;349.52;;;;;;;21.15;84.58;99939.03;288893;33;5269;-75
2023/09/09 00:45:48;;;;;;;396.35;348.85;;;;;;;21.16;85.00;99934.56;286708;34;6348;-75
2023/09/09 00:45:59;;;;;;;396.20;346.07;;;;;;;21.15;84.34;99932.88;288953;34;1491;-77
2023/09/09 00:46:09;;;;;;;397.17;351.80;;;;;;;21.16;85.04;99938.06;284385;34;7345;-75
2023/09/09 00:46:19;;;;;;;401.60;357.37;;;;;;;21.16;84.77;99939.88;282657;34;7333;-76
2023/09/09 00:46:30;;;;;;;404.50;360.30;;;;;;;21.16;84.80;99935.41;281693;35;889;-76
2023/09/09 00:46:41;;;;;;;401.37;357.10;;;;;;;21.16;84.95;99935.41;274530;36;824;-76
2023/09/09 00:46:52;;;;;;;396.48;351.52;;;;;;;21.17;84.78;99930.94;271464;35;5725;-76
2023/09/09 00:47:02;;;;;;;397.95;353.15;;;;;;;21.17;84.96;99930.94;270426;35;8723;-76
2023/09/09 00:47:13;;;;;;;404.17;359.92;;;;;;;21.18;84.60;99933.47;272894;36;1027;-76
2023/09/09 00:48:55;;;;;;;340.98;295.37;;;;;;;21.19;84.74;99931.66;2501472;27;20488;-74
2023/09/09 00:49:05;;;;;;;407.20;363.00;;;;;;;21.19;84.92;99935.16;352854;28;863;-76
2023/09/09 00:49:16;;;;;;;408.02;363.85;;;;;;;21.19;85.08;99934.31;350039;28;1340;-76
2023/09/09 00:49:26;;;;;;;412.63;368.07;;;;;;;21.18;84.95;99932.63;350156;28;777;-76
2023/09/09 00:49:37;;;;;;;412.73;368.25;;;;;;;21.17;85.09;99926.47;347947;28;2946;-75
2023/09/09 00:49:47;;;;;;;408.80;364.43;;;;;;;21.17;84.83;99933.59;347020;28;2086;-76
2023/09/09 00:49:58;;;;;;;407.02;362.73;;;;;;;21.16;84.86;99930.09;348959;28;2932;-75
2023/09/09 00:50:11;;;;;;;405.00;360.55;;;;;;;21.15;85.27;99925.72;349928;28;1421;-75
2023/09/09 00:50:25;;;;;;;405.92;361.38;;;;;;;21.16;85.04;99923.91;348466;28;3094;-75
2023/09/09 00:50:35;;;;;;;411.02;366.45;;;;;;;21.16;85.38;99929.25;347644;28;958;-75
2023/09/09 00:50:45;;;;;;;409.02;364.65;;;;;;;21.14;85.51;99928.50;348541;28;1401;-75
2023/09/09 00:50:56;;;;;;;404.03;359.83;;;;;;;21.15;85.08;99935.53;348802;28;903;-75
2023/09/09 00:51:11;;;;;;;409.42;364.90;;;;;;;21.15;85.28;99932.88;348501;28;1345;-77
2023/09/09 00:51:22;;;;;;;412.48;367.95;;;;;;;21.16;85.30;99926.56;348871;28;906;-75
2023/09/09 00:51:33;;;;;;;408.38;363.95;;;;;;;21.16;85.18;99929.25;348678;28;1162;-75
2023/09/09 00:51:44;;;;;;;410.40;365.90;;;;;;;21.17;85.17;99928.28;347845;28;1441;-75
2023/09/09 00:51:54;;;;;;;416.70;372.02;;;;;;;21.17;85.05;99926.47;346302;28;1121;-75
2023/09/09 00:52:05;;;;;;;426.13;381.20;;;;;;;21.17;85.25;99936.25;343054;28;1571;-75
2023/09/09 00:52:15;;;;;;;419.00;374.35;;;;;;;21.17;85.06;99922.94;345843;28;819;-75
2023/09/09 00:52:26;;;;;;;410.40;366.03;;;;;;;21.18;84.92;99924.63;345962;28;1079;-75
2023/09/09 00:52:37;;;;;;;400.45;356.42;;;;;;;21.18;85.06;99927.31;348421;28;1328;-75
2023/09/09 00:52:48;;;;;;;410.38;366.15;;;;;;;21.17;85.10;99926.47;347063;28;1454;-75
2023/09/09 00:52:58;;;;;;;416.77;372.23;;;;;;;21.18;85.40;99924.63;344344;28;1349;-75
2023/09/09 00:53:09;;;;;;;419.00;374.30;;;;;;;21.16;85.36;99927.41;344540;28;1244;-75
2023/09/09 00:53:19;;;;;;;413.80;369.27;;;;;;;21.17;85.42;99925.59;346452;28;1334;-75
2023/09/09 00:53:30;;;;;;;412.10;367.60;;;;;;;21.16;85.44;99930.09;343128;28;1205;-75
2023/09/09 00:53:40;;;;;;;412.00;367.48;;;;;;;21.17;85.15;99931.78;340646;29;836;-75